createdAt,value
2023-03-23T00:00:37.076Z,99331.09
2023-03-23T00:02:08.853Z,99328.41
2023-03-23T00:03:42.197Z,99331.25
2023-03-23T00:05:14.667Z,99332.09
2023-03-23T00:06:46.515Z,99334.63
2023-03-23T00:08:22.123Z,99331.94
2023-03-23T00:09:55.181Z,99332.94
2023-03-23T00:11:30.340Z,99327.56
2023-03-23T00:13:05.880Z,99330.91
2023-03-23T00:14:42.505Z,99333.47
2023-03-23T00:16:21.198Z,99330.59
2023-03-23T00:17:53.042Z,99332.31
2023-03-23T00:19:26.702Z,99339.13
2023-03-23T00:20:59.534Z,99337.13
2023-03-23T00:22:31.719Z,99335.81
2023-03-23T00:24:10.676Z,99337.34
2023-03-23T00:25:42.723Z,99337.88
2023-03-23T00:27:16.132Z,99337.41
2023-03-23T00:28:48.234Z,99330.66
2023-03-23T00:30:20.371Z,99326.66
2023-03-23T00:31:53.327Z,99326.34
2023-03-23T00:33:28.046Z,99324.19
2023-03-23T00:35:00.070Z,99327.22
2023-03-23T00:36:36.493Z,99331.31
2023-03-23T00:38:09.548Z,99329.16
2023-03-23T00:39:47.285Z,99325.94
2023-03-23T00:41:19.262Z,99321.25
2023-03-23T00:42:51.580Z,99322.63
2023-03-23T00:44:24.737Z,99318.56
2023-03-23T00:45:58.173Z,99323.66
2023-03-23T00:47:31.429Z,99321.34
2023-03-23T00:49:03.803Z,99324.03
2023-03-23T00:50:38.997Z,99318.97
2023-03-23T00:52:13.257Z,99318.81
2023-03-23T00:53:45.783Z,99313.94
2023-03-23T00:55:17.628Z,99316.31
2023-03-23T00:56:49.649Z,99315.16
2023-03-23T00:58:21.723Z,99310.41
2023-03-23T00:59:54.013Z,99311.25
2023-03-23T01:01:37.469Z,99303.84
2023-03-23T01:03:13.343Z,99297.41
2023-03-23T01:04:46.046Z,99304.53
2023-03-23T01:06:17.918Z,99301.81
2023-03-23T01:07:49.811Z,99301.81
2023-03-23T01:09:24.599Z,99294.03
2023-03-23T01:11:04.777Z,99293.34
2023-03-23T01:12:37.854Z,99289.63
2023-03-23T01:14:10.475Z,99293.34
2023-03-23T01:15:43.505Z,99290.81
2023-03-23T01:17:15.712Z,99287.25
2023-03-23T01:18:47.914Z,99288.25
2023-03-23T01:20:20.216Z,99273.22
2023-03-23T01:21:52.155Z,99277.78
2023-03-23T01:23:24.012Z,99273.38
2023-03-23T01:24:56.019Z,99269.00
2023-03-23T01:26:29.670Z,99267.47
2023-03-23T01:28:02.209Z,99263.06
2023-03-23T01:29:35.117Z,99264.91
2023-03-23T01:31:14.661Z,99262.53
2023-03-23T01:32:46.730Z,99263.41
2023-03-23T01:34:18.600Z,99260.16
2023-03-23T01:35:50.679Z,99257.78
2023-03-23T01:37:27.316Z,99255.25
2023-03-23T01:39:04.024Z,99256.41
2023-03-23T01:40:36.716Z,99252.03
2023-03-23T01:42:10.924Z,99252.19
2023-03-23T01:44:09.654Z,99247.44
2023-03-23T01:45:49.947Z,99246.44
2023-03-23T01:47:24.708Z,99244.06
2023-03-23T01:49:01.824Z,99258.59
2023-03-23T01:50:56.746Z,99248.41
2023-03-23T01:52:30.565Z,99237.44
2023-03-23T01:54:12.279Z,99246.56
2023-03-23T01:55:49.503Z,99244.19
2023-03-23T01:57:24.555Z,99247.72
2023-03-23T01:58:57.659Z,99243.16
2023-03-23T02:00:31.593Z,99243.16
2023-03-23T02:02:03.758Z,99255.81
2023-03-23T02:03:37.846Z,99247.72
2023-03-23T02:05:14.919Z,99243.16
2023-03-23T02:06:48.873Z,99255.69
2023-03-23T02:08:29.318Z,99259.22
2023-03-23T02:10:01.724Z,99251.97
2023-03-23T02:11:37.037Z,99250.94
2023-03-23T02:13:12.782Z,99254.50
2023-03-23T02:14:44.666Z,99248.09
2023-03-23T02:16:29.937Z,99246.38
2023-03-23T02:18:09.853Z,99240.84
2023-03-23T02:20:00.280Z,99240.13
2023-03-23T02:21:56.267Z,99238.28
2023-03-23T02:23:50.163Z,99242.00
2023-03-23T02:25:56.224Z,99238.28
2023-03-23T02:27:37.140Z,99242.00
2023-03-23T02:29:31.249Z,99237.44
2023-03-23T02:31:23.268Z,99241.47
2023-03-23T02:33:19.932Z,99241.78
2023-03-23T02:34:57.923Z,99228.13
2023-03-23T02:36:36.713Z,99237.41
2023-03-23T02:38:18.265Z,99238.72
2023-03-23T02:39:53.253Z,99235.50
2023-03-23T02:41:31.796Z,99233.31
2023-03-23T02:43:07.514Z,99233.50
2023-03-23T02:44:43.938Z,99235.50
2023-03-23T02:46:16.992Z,99234.84
2023-03-23T02:47:53.211Z,99236.84
2023-03-23T02:49:28.304Z,99240.56
2023-03-23T02:51:02.940Z,99235.47
2023-03-23T02:52:37.984Z,99233.75
2023-03-23T02:54:11.459Z,99235.63
2023-03-23T02:55:45.038Z,99230.22
2023-03-23T02:57:23.716Z,99234.94
2023-03-23T02:59:12.414Z,99226.16
2023-03-23T03:00:45.359Z,99230.00
2023-03-23T03:02:22.300Z,99227.63
2023-03-23T03:03:57.345Z,99219.69
2023-03-23T03:05:47.977Z,99215.97
2023-03-23T03:07:38.105Z,99220.03
2023-03-23T03:09:26.842Z,99223.34
2023-03-23T03:11:06.722Z,99219.94
2023-03-23T03:12:57.489Z,99213.00
2023-03-23T03:14:40.534Z,99211.47
2023-03-23T03:16:36.115Z,99203.38
2023-03-23T03:18:20.513Z,99203.38
2023-03-23T03:19:58.407Z,99207.09
2023-03-23T03:21:37.603Z,99202.84
2023-03-23T03:23:13.964Z,99203.19
2023-03-23T03:24:49.393Z,99202.53
2023-03-23T03:26:27.756Z,99194.56
2023-03-23T03:28:05.452Z,99203.53
2023-03-23T03:29:48.847Z,99203.00
2023-03-23T03:31:26.096Z,99205.91
2023-03-23T03:33:01.532Z,99208.47
2023-03-23T03:34:34.776Z,99204.91
2023-03-23T03:36:17.140Z,99196.81
2023-03-23T03:37:49.282Z,99202.75
2023-03-23T03:39:22.658Z,99201.63
2023-03-23T03:40:55.566Z,99204.66
2023-03-23T03:42:29.248Z,99195.41
2023-03-23T03:44:01.425Z,99203.19
2023-03-23T03:45:33.591Z,99198.44
2023-03-23T03:47:05.798Z,99199.84
2023-03-23T03:48:37.933Z,99203.91
2023-03-23T03:50:10.747Z,99205.25
2023-03-23T03:51:43.304Z,99207.66
2023-03-23T03:53:22.987Z,99206.16
2023-03-23T03:55:01.677Z,99204.81
2023-03-23T03:56:41.366Z,99199.78
2023-03-23T03:58:32.709Z,99198.63
2023-03-23T04:00:28.119Z,99201.84
2023-03-23T04:02:00.152Z,99203.34
2023-03-23T04:03:32.411Z,99203.03
2023-03-23T04:05:15.756Z,99194.59
2023-03-23T04:06:50.215Z,99207.94
2023-03-23T04:08:25.581Z,99203.22
2023-03-23T04:09:57.482Z,99203.06
2023-03-23T04:11:32.736Z,99206.44
2023-03-23T04:13:25.423Z,99203.56
2023-03-23T04:15:21.109Z,99196.50
2023-03-23T04:16:58.052Z,99198.16
2023-03-23T04:18:30.615Z,99199.84
2023-03-23T04:20:09.557Z,99200.69
2023-03-23T04:21:41.440Z,99185.50
2023-03-23T04:23:15.893Z,99187.03
2023-03-23T04:24:56.513Z,99186.19
2023-03-23T04:26:30.433Z,99187.88
2023-03-23T04:28:08.356Z,99189.56
2023-03-23T04:29:50.895Z,99182.31
2023-03-23T04:31:46.638Z,99191.94
2023-03-23T04:33:58.705Z,99191.94
2023-03-23T04:35:29.037Z,99191.78
2023-03-23T04:37:14.676Z,99196.34
2023-03-23T04:38:46.929Z,99192.63
2023-03-23T04:40:25.849Z,99194.50
2023-03-23T04:42:10.551Z,99190.06
2023-03-23T04:44:10.420Z,99193.66
2023-03-23T04:45:57.364Z,99203.59
2023-03-23T04:47:34.170Z,99196.03
2023-03-23T04:49:07.750Z,99188.91
2023-03-23T04:50:42.996Z,99181.31
2023-03-23T04:52:23.063Z,99183.16
2023-03-23T04:53:59.355Z,99174.91
2023-03-23T04:55:39.683Z,99176.59
2023-03-23T04:57:13.924Z,99173.69
2023-03-23T04:58:50.823Z,99178.28
2023-03-23T05:00:38.440Z,99175.22
2023-03-23T05:02:14.952Z,99169.00
2023-03-23T05:03:50.482Z,99166.13
2023-03-23T05:05:24.497Z,99163.25
2023-03-23T05:06:57.904Z,99154.81
2023-03-23T05:08:33.936Z,99166.78
2023-03-23T05:10:07.528Z,99179.13
2023-03-23T05:11:39.722Z,99183.53
2023-03-23T05:13:11.586Z,99178.97
2023-03-23T05:14:44.190Z,99179.66
2023-03-23T05:16:19.689Z,99180.50
2023-03-23T05:17:54.545Z,99187.44
2023-03-23T05:19:27.342Z,99169.38
2023-03-23T05:21:04.515Z,99186.28
2023-03-23T05:22:40.904Z,99173.44
2023-03-23T05:24:13.715Z,99179.53
2023-03-23T05:25:48.546Z,99176.47
2023-03-23T05:27:23.364Z,99180.03
2023-03-23T05:28:57.258Z,99182.59
2023-03-23T05:30:45.612Z,99177.84
2023-03-23T05:32:20.349Z,99172.09
2023-03-23T05:33:53.291Z,99165.69
2023-03-23T05:35:33.930Z,99179.72
2023-03-23T05:37:06.558Z,99176.81
2023-03-23T05:38:53.507Z,99177.53
2023-03-23T05:40:27.031Z,99184.47
2023-03-23T05:42:05.305Z,99182.25
2023-03-23T05:43:48.876Z,99185.63
2023-03-23T05:45:43.607Z,99178.84
2023-03-23T05:47:15.777Z,99179.72
2023-03-23T05:48:53.497Z,99182.94
2023-03-23T05:50:29.110Z,99183.59
2023-03-23T05:52:00.986Z,99174.47
2023-03-23T05:53:32.959Z,99176.16
2023-03-23T05:55:05.627Z,99187.66
2023-03-23T05:56:39.465Z,99181.22
2023-03-23T05:58:26.192Z,99184.63
2023-03-23T06:00:00.745Z,99184.63
2023-03-23T06:01:32.978Z,99194.22
2023-03-23T06:03:04.889Z,99185.28
2023-03-23T06:04:46.058Z,99193.06
2023-03-23T06:06:24.490Z,99193.91
2023-03-23T06:08:01.516Z,99188.47
2023-03-23T06:09:33.686Z,99197.09
2023-03-23T06:11:20.976Z,99195.09
2023-03-23T06:13:10.894Z,99194.75
2023-03-23T06:14:50.763Z,99191.69
2023-03-23T06:16:28.140Z,99184.25
2023-03-23T06:18:04.071Z,99182.22
2023-03-23T06:20:11.060Z,99183.53
2023-03-23T06:21:45.119Z,99180.50
2023-03-23T06:23:25.557Z,99175.44
2023-03-23T06:24:58.333Z,99182.19
2023-03-23T06:26:40.462Z,99177.25
2023-03-23T06:28:16.554Z,99186.59
2023-03-23T06:29:52.566Z,99175.22
2023-03-23T06:31:27.775Z,99188.25
2023-03-23T06:33:00.290Z,99184.19
2023-03-23T06:34:52.084Z,99187.22
2023-03-23T06:36:44.794Z,99195.00
2023-03-23T06:38:29.532Z,99198.03
2023-03-23T06:40:01.884Z,99186.00
2023-03-23T06:41:37.932Z,99193.78
2023-03-23T06:43:10.800Z,99193.59
2023-03-23T06:45:01.763Z,99206.63
2023-03-23T06:46:33.774Z,99210.00
2023-03-23T06:48:24.521Z,99205.09
2023-03-23T06:49:57.249Z,99215.75
2023-03-23T06:51:31.608Z,99220.81
2023-03-23T06:53:03.423Z,99212.31
2023-03-23T06:54:35.934Z,99220.09
2023-03-23T06:56:09.198Z,99216.22
2023-03-23T06:57:43.512Z,99217.53
2023-03-23T06:59:16.608Z,99213.44
2023-03-23T07:00:49.046Z,99214.78
2023-03-23T07:02:22.249Z,99217.81
2023-03-23T07:03:57.220Z,99227.94
2023-03-23T07:05:41.024Z,99229.28
2023-03-23T07:07:15.616Z,99231.16
2023-03-23T07:08:54.309Z,99225.00
2023-03-23T07:10:29.682Z,99233.44
2023-03-23T07:12:02.118Z,99229.19
2023-03-23T07:13:38.845Z,99237.25
2023-03-23T07:15:12.116Z,99232.97
2023-03-23T07:16:46.246Z,99236.00
2023-03-23T07:18:18.386Z,99236.13
2023-03-23T07:19:53.055Z,99233.69
2023-03-23T07:21:25.205Z,99230.06
2023-03-23T07:22:57.148Z,99237.69
2023-03-23T07:24:44.214Z,99241.72
2023-03-23T07:26:31.171Z,99250.19
2023-03-23T07:28:05.847Z,99238.75
2023-03-23T07:29:41.129Z,99237.19
2023-03-23T07:31:18.810Z,99249.72
2023-03-23T07:32:52.019Z,99246.66
2023-03-23T07:34:25.346Z,99251.94
2023-03-23T07:36:08.556Z,99250.72
2023-03-23T07:37:42.369Z,99244.91
2023-03-23T07:39:15.080Z,99245.59
2023-03-23T07:40:48.157Z,99246.25
2023-03-23T07:42:22.528Z,99245.88
2023-03-23T07:44:00.974Z,99250.94
2023-03-23T07:45:39.692Z,99245.50
2023-03-23T07:47:12.025Z,99261.44
2023-03-23T07:48:44.323Z,99242.41
2023-03-23T07:50:16.346Z,99235.97
2023-03-23T07:51:48.548Z,99252.28
2023-03-23T07:53:25.123Z,99253.78
2023-03-23T07:55:07.586Z,99274.28
2023-03-23T07:57:05.939Z,99257.81
2023-03-23T07:58:42.768Z,99258.66
2023-03-23T08:00:20.319Z,99274.59
2023-03-23T08:01:53.100Z,99268.78
2023-03-23T08:03:55.780Z,99279.28
2023-03-23T08:05:47.364Z,99271.78
2023-03-23T08:07:20.354Z,99271.78
2023-03-23T08:09:15.144Z,99271.78
2023-03-23T08:11:12.653Z,99273.47
2023-03-23T08:12:56.317Z,99271.97
2023-03-23T08:14:45.965Z,99277.41
2023-03-23T08:16:41.921Z,99283.69
2023-03-23T08:18:40.215Z,99278.91
2023-03-23T08:20:33.853Z,99280.78
2023-03-23T08:22:05.695Z,99279.09
2023-03-23T08:23:49.771Z,99280.78
2023-03-23T08:25:33.362Z,99277.19
2023-03-23T08:27:16.850Z,99292.88
2023-03-23T08:28:48.664Z,99289.47
2023-03-23T08:30:49.630Z,99280.50
2023-03-23T08:32:53.496Z,99287.13
2023-03-23T08:34:44.335Z,99300.25
2023-03-23T08:36:34.350Z,99304.28
2023-03-23T08:38:24.466Z,99297.34
2023-03-23T08:40:17.765Z,99290.41
2023-03-23T08:42:08.723Z,99298.09
2023-03-23T08:43:54.764Z,99301.34
2023-03-23T08:45:57.866Z,99298.81
2023-03-23T08:47:53.078Z,99304.78
2023-03-23T08:49:46.450Z,99303.47
2023-03-23T08:51:37.191Z,99313.00
2023-03-23T08:53:15.254Z,99313.38
2023-03-23T08:54:52.641Z,99308.47
2023-03-23T08:56:40.008Z,99312.75
2023-03-23T08:58:20.815Z,99298.22
2023-03-23T09:00:19.433Z,99304.84
2023-03-23T09:02:15.366Z,99303.31
2023-03-23T09:03:53.017Z,99311.00
2023-03-23T09:05:35.644Z,99309.31
2023-03-23T09:07:21.991Z,99304.72
2023-03-23T09:08:56.826Z,99309.31
2023-03-23T09:10:31.314Z,99317.44
2023-03-23T09:12:03.145Z,99305.72
2023-03-23T09:13:36.542Z,99311.34
2023-03-23T09:15:11.884Z,99312.38
2023-03-23T09:16:46.400Z,99310.19
2023-03-23T09:18:18.462Z,99307.47
2023-03-23T09:19:50.301Z,99316.66
2023-03-23T09:21:29.309Z,99314.09
2023-03-23T09:23:01.284Z,99318.03
2023-03-23T09:24:33.129Z,99316.31
2023-03-23T09:26:05.552Z,99318.03
2023-03-23T09:27:38.121Z,99317.56
2023-03-23T09:29:09.917Z,99321.47
2023-03-23T09:30:53.001Z,99320.78
2023-03-23T09:32:25.320Z,99325.38
2023-03-23T09:33:58.255Z,99323.69
2023-03-23T09:35:33.045Z,99323.50
2023-03-23T09:37:05.605Z,99328.78
2023-03-23T09:38:38.226Z,99325.03
2023-03-23T09:40:19.629Z,99327.38
2023-03-23T09:42:09.207Z,99325.69
2023-03-23T09:44:02.860Z,99328.72
2023-03-23T09:46:13.499Z,99322.25
2023-03-23T09:48:10.108Z,99318.16
2023-03-23T09:49:54.366Z,99321.16
2023-03-23T09:51:43.774Z,99323.53
2023-03-23T09:53:25.955Z,99314.31
2023-03-23T09:54:58.138Z,99316.97
2023-03-23T09:56:33.760Z,99314.22
2023-03-23T09:58:18.021Z,99307.38
2023-03-23T10:00:14.592Z,99299.81
2023-03-23T10:01:53.339Z,99300.44
2023-03-23T10:03:35.582Z,99293.88
2023-03-23T10:05:35.263Z,99293.13
2023-03-23T10:07:17.692Z,99303.75
2023-03-23T10:08:57.470Z,99315.19
2023-03-23T10:10:51.352Z,99309.88
2023-03-23T10:12:31.312Z,99310.44
2023-03-23T10:14:44.833Z,99310.72
2023-03-23T10:16:24.141Z,99304.66
2023-03-23T10:18:05.301Z,99311.91
2023-03-23T10:19:49.129Z,99308.00
2023-03-23T10:21:23.873Z,99306.88
2023-03-23T10:23:14.363Z,99317.38
2023-03-23T10:24:56.882Z,99315.41
2023-03-23T10:26:56.923Z,99314.19
2023-03-23T10:28:40.025Z,99310.50
2023-03-23T10:30:13.108Z,99313.69
2023-03-23T10:31:50.445Z,99312.47
2023-03-23T10:33:31.232Z,99310.59
2023-03-23T10:35:07.388Z,99310.22
2023-03-23T10:36:51.708Z,99309.16
2023-03-23T10:38:30.169Z,99306.25
2023-03-23T10:40:10.383Z,99295.38
2023-03-23T10:41:42.782Z,99298.94
2023-03-23T10:43:15.077Z,99306.44
2023-03-23T10:44:46.918Z,99293.22
2023-03-23T10:48:14.353Z,99288.53
2023-03-23T10:50:02.547Z,99297.06
2023-03-23T10:51:42.215Z,99306.28
2023-03-23T10:53:22.221Z,99293.25
2023-03-23T10:55:08.167Z,99294.84
2023-03-23T10:56:58.129Z,99293.81
2023-03-23T10:58:34.653Z,99294.84
2023-03-23T11:00:41.734Z,99298.81
2023-03-23T11:02:29.337Z,99299.47
2023-03-23T11:04:02.748Z,99297.78
2023-03-23T11:05:42.416Z,99296.28
2023-03-23T11:07:21.817Z,99297.28
2023-03-23T11:09:12.756Z,99303.13
2023-03-23T11:10:53.808Z,99307.34
2023-03-23T11:12:25.718Z,99314.66
2023-03-23T11:14:15.530Z,99311.28
2023-03-23T11:15:49.584Z,99316.56
2023-03-23T11:17:30.962Z,99314.59
2023-03-23T11:19:25.785Z,99316.47
2023-03-23T11:21:00.380Z,99319.28
2023-03-23T11:22:37.619Z,99327.59
2023-03-23T11:24:10.261Z,99307.34
2023-03-23T11:25:55.206Z,99312.53
2023-03-23T11:27:29.617Z,99311.47
2023-03-23T11:29:11.754Z,99314.78
2023-03-23T11:30:43.668Z,99321.25
2023-03-23T11:32:17.183Z,99330.66
2023-03-23T11:34:05.946Z,99325.59
2023-03-23T11:35:38.116Z,99324.72
2023-03-23T11:37:24.710Z,99335.97
2023-03-23T11:38:59.900Z,99341.63
2023-03-23T11:40:33.428Z,99337.22
2023-03-23T11:42:21.531Z,99345.75
2023-03-23T11:43:53.953Z,99342.19
2023-03-23T11:45:31.383Z,99350.53
2023-03-23T11:47:14.457Z,99346.28
2023-03-23T11:48:57.460Z,99344.81
2023-03-23T11:50:34.084Z,99346.66
2023-03-23T11:52:22.574Z,99344.53
2023-03-23T11:54:14.321Z,99337.19
2023-03-23T11:55:46.499Z,99337.78
2023-03-23T11:57:22.081Z,99344.41
2023-03-23T11:58:56.698Z,99337.66
2023-03-23T12:00:29.827Z,99335.47
2023-03-23T12:02:25.136Z,99347.94
2023-03-23T12:04:03.976Z,99334.06
2023-03-23T12:05:42.222Z,99337.50
2023-03-23T12:07:24.775Z,99334.69
2023-03-23T12:09:09.098Z,99339.44
2023-03-23T12:12:29.147Z,99340.06
2023-03-23T12:14:16.076Z,99342.69
2023-03-23T12:15:57.583Z,99329.66
2023-03-23T12:17:41.287Z,99332.16
2023-03-23T12:19:32.193Z,99330.50
2023-03-23T12:21:22.760Z,99325.91
2023-03-23T12:23:23.764Z,99325.06
2023-03-23T12:25:18.446Z,99327.25
2023-03-23T12:27:01.650Z,99332.78
2023-03-23T12:29:01.539Z,99336.16
2023-03-23T12:30:45.083Z,99323.50
2023-03-23T12:32:34.467Z,99326.53
2023-03-23T12:34:18.610Z,99334.13
2023-03-23T12:36:00.038Z,99331.72
2023-03-23T12:37:56.454Z,99327.56
2023-03-23T12:39:39.134Z,99322.25
2023-03-23T12:41:38.988Z,99324.13
2023-03-23T12:43:26.087Z,99320.19
2023-03-23T12:45:23.443Z,99312.88
2023-03-23T12:47:29.726Z,99322.34
2023-03-23T12:49:29.469Z,99306.69
2023-03-23T12:51:20.022Z,99326.06
2023-03-23T12:53:21.682Z,99316.84
2023-03-23T12:55:10.843Z,99315.91
2023-03-23T12:57:00.071Z,99315.75
2023-03-23T12:58:36.648Z,99322.09
2023-03-23T13:00:27.343Z,99322.38
2023-03-23T13:02:05.923Z,99322.66
2023-03-23T13:03:49.594Z,99324.81
2023-03-23T13:05:25.126Z,99336.25
2023-03-23T13:06:59.313Z,99336.34
2023-03-23T13:08:43.529Z,99338.94
2023-03-23T13:10:23.994Z,99326.91
2023-03-23T13:11:58.310Z,99330.84
2023-03-23T13:13:55.247Z,99323.22
2023-03-23T13:15:46.039Z,99327.59
2023-03-23T13:17:27.390Z,99310.34
2023-03-23T13:18:59.147Z,99308.72
2023-03-23T13:20:46.507Z,99310.50
2023-03-23T13:22:36.258Z,99309.09
2023-03-23T13:24:14.238Z,99307.25
2023-03-23T13:26:02.824Z,99298.25
2023-03-23T13:27:34.640Z,99289.47
2023-03-23T13:29:20.970Z,99290.69
2023-03-23T13:31:14.776Z,99282.06
2023-03-23T13:32:50.081Z,99274.56
2023-03-23T13:34:32.085Z,99265.53
2023-03-23T13:36:13.365Z,99267.81
2023-03-23T13:37:53.745Z,99268.66
2023-03-23T13:39:31.175Z,99275.34
2023-03-23T13:41:14.882Z,99266.91
2023-03-23T13:42:55.956Z,99268.59
2023-03-23T13:44:40.499Z,99263.16
2023-03-23T13:46:31.484Z,99270.00
2023-03-23T13:48:16.818Z,99265.00
2023-03-23T13:50:16.177Z,99251.38
2023-03-23T13:52:07.340Z,99253.94
2023-03-23T13:53:48.615Z,99251.84
2023-03-23T13:55:31.458Z,99252.88
2023-03-23T13:57:04.645Z,99246.25
2023-03-23T13:58:50.907Z,99249.81
2023-03-23T14:00:31.757Z,99253.63
2023-03-23T14:02:35.892Z,99256.00
2023-03-23T14:04:16.820Z,99249.75
2023-03-23T14:06:00.796Z,99254.97
2023-03-23T14:07:53.286Z,99260.25
2023-03-23T14:09:43.769Z,99256.72
2023-03-23T14:11:24.939Z,99259.28
2023-03-23T14:12:56.775Z,99258.47
2023-03-23T14:14:36.887Z,99254.78
2023-03-23T14:16:30.594Z,99260.09
2023-03-23T14:18:05.837Z,99241.50
2023-03-23T14:19:41.061Z,99242.59
2023-03-23T14:21:22.814Z,99246.22
2023-03-23T14:22:56.874Z,99258.00
2023-03-23T14:24:31.822Z,99252.59
2023-03-23T14:26:12.015Z,99257.44
2023-03-23T14:27:44.991Z,99257.88
2023-03-23T14:29:16.831Z,99265.25
2023-03-23T14:30:55.232Z,99264.84
2023-03-23T14:32:30.100Z,99266.50
2023-03-23T14:34:13.811Z,99275.78
2023-03-23T14:35:47.360Z,99276.41
2023-03-23T14:37:19.464Z,99268.22
2023-03-23T14:39:20.254Z,99275.72
2023-03-23T14:40:52.405Z,99266.44
2023-03-23T14:42:32.587Z,99274.41
2023-03-23T14:44:07.832Z,99277.31
2023-03-23T14:45:40.515Z,99272.25
2023-03-23T14:47:20.767Z,99276.44
2023-03-23T14:48:53.431Z,99278.91
2023-03-23T14:50:30.146Z,99267.78
2023-03-23T14:52:10.702Z,99283.22
2023-03-23T14:53:43.461Z,99264.53
2023-03-23T14:55:22.092Z,99272.50
2023-03-23T14:56:54.868Z,99266.81
2023-03-23T14:58:26.745Z,99272.03
2023-03-23T14:59:59.166Z,99271.13
2023-03-23T15:01:34.601Z,99265.88
2023-03-23T15:03:11.663Z,99268.34
2023-03-23T15:04:47.507Z,99270.19
2023-03-23T15:06:22.834Z,99271.19
2023-03-23T15:08:00.657Z,99269.66
2023-03-23T15:09:33.354Z,99268.97
2023-03-23T15:11:23.403Z,99266.56
2023-03-23T15:12:59.009Z,99266.50
2023-03-23T15:14:43.710Z,99280.28
2023-03-23T15:16:29.981Z,99278.09
2023-03-23T15:18:03.479Z,99276.78
2023-03-23T15:19:41.123Z,99282.41
2023-03-23T15:21:23.520Z,99283.34
2023-03-23T15:22:56.165Z,99282.91
2023-03-23T15:24:42.127Z,99290.16
2023-03-23T15:26:25.604Z,99284.44
2023-03-23T15:28:04.693Z,99274.97
2023-03-23T15:29:54.136Z,99288.88
2023-03-23T15:31:26.075Z,99294.72
2023-03-23T15:33:14.559Z,99293.97
2023-03-23T15:34:46.656Z,99292.88
2023-03-23T15:36:19.848Z,99299.94
2023-03-23T15:38:05.651Z,99293.56
2023-03-23T15:39:42.444Z,99300.97
2023-03-23T15:41:34.822Z,99298.75
2023-03-23T15:43:18.156Z,99296.19
2023-03-23T15:45:03.602Z,99295.06
2023-03-23T15:46:35.414Z,99301.94
2023-03-23T15:48:13.615Z,99317.50
2023-03-23T15:49:46.715Z,99312.47
2023-03-23T15:51:21.047Z,99310.44
2023-03-23T15:52:53.231Z,99302.00
2023-03-23T15:54:25.084Z,99308.19
2023-03-23T15:56:00.134Z,99306.03
2023-03-23T15:57:32.010Z,99309.28
2023-03-23T15:59:04.286Z,99310.91
2023-03-23T16:00:36.160Z,99308.72
2023-03-23T16:02:17.138Z,99310.13
2023-03-23T16:03:59.101Z,99313.22
2023-03-23T16:05:30.927Z,99323.41
2023-03-23T16:07:02.865Z,99315.81
2023-03-23T16:08:41.005Z,99308.22
2023-03-23T16:10:18.639Z,99317.75
2023-03-23T16:11:50.549Z,99308.97
2023-03-23T16:13:23.150Z,99305.09
2023-03-23T16:14:58.544Z,99307.34
2023-03-23T16:16:39.827Z,99312.28
2023-03-23T16:18:18.425Z,99307.38
2023-03-23T16:19:50.309Z,99305.91
2023-03-23T16:21:22.795Z,99312.53
2023-03-23T16:22:54.963Z,99310.16
2023-03-23T16:24:26.788Z,99316.97
2023-03-23T16:25:58.706Z,99325.47
2023-03-23T16:27:30.812Z,99327.03
2023-03-23T16:29:12.936Z,99342.66
2023-03-23T16:30:52.107Z,99329.63
2023-03-23T16:32:24.422Z,99334.38
2023-03-23T16:33:56.240Z,99348.50
2023-03-23T16:35:28.151Z,99342.25
2023-03-23T16:37:00.198Z,99340.72
2023-03-23T16:38:31.984Z,99345.66
2023-03-23T16:40:05.120Z,99343.13
2023-03-23T16:41:36.909Z,99349.78
2023-03-23T16:43:09.778Z,99344.69
2023-03-23T16:44:41.777Z,99342.34
2023-03-23T16:46:14.419Z,99342.69
2023-03-23T16:47:46.357Z,99340.97
2023-03-23T16:49:18.465Z,99334.91
2023-03-23T16:50:51.845Z,99337.13
2023-03-23T16:52:24.218Z,99348.34
2023-03-23T16:53:56.305Z,99343.91
2023-03-23T16:55:28.426Z,99336.13
2023-03-23T16:57:00.240Z,99341.06
2023-03-23T16:58:32.283Z,99343.78
2023-03-23T17:00:09.744Z,99344.13
2023-03-23T17:01:43.409Z,99341.59
2023-03-23T17:03:16.636Z,99340.09
2023-03-23T17:04:48.530Z,99346.53
2023-03-23T17:06:20.317Z,99339.59
2023-03-23T17:07:53.164Z,99343.50
2023-03-23T17:09:28.050Z,99347.41
2023-03-23T17:10:59.973Z,99351.34
2023-03-23T17:12:31.979Z,99356.06
2023-03-23T17:14:03.913Z,99369.09
2023-03-23T17:15:41.084Z,99368.28
2023-03-23T17:17:13.902Z,99377.59
2023-03-23T17:18:45.873Z,99377.25
2023-03-23T17:20:18.036Z,99375.75
2023-03-23T17:21:49.890Z,99383.22
2023-03-23T17:23:22.132Z,99380.00
2023-03-23T17:24:54.092Z,99376.59
2023-03-23T17:26:26.011Z,99374.44
2023-03-23T17:28:05.117Z,99374.59
2023-03-23T17:29:38.954Z,99373.09
2023-03-23T17:31:10.895Z,99375.13
2023-03-23T17:32:50.411Z,99378.34
2023-03-23T17:34:22.875Z,99376.97
2023-03-23T17:35:55.301Z,99376.47
2023-03-23T17:37:27.585Z,99372.44
2023-03-23T17:38:59.425Z,99378.53
2023-03-23T17:40:31.237Z,99374.81
2023-03-23T17:42:04.238Z,99379.88
2023-03-23T17:43:36.634Z,99385.97
2023-03-23T17:45:09.571Z,99378.91
2023-03-23T17:46:41.425Z,99383.28
2023-03-23T17:48:13.407Z,99378.50
2023-03-23T17:49:45.569Z,99376.81
2023-03-23T17:51:17.683Z,99371.38
2023-03-23T17:52:50.082Z,99376.63
2023-03-23T17:54:21.916Z,99375.75
2023-03-23T17:55:53.827Z,99369.31
2023-03-23T17:57:29.003Z,99378.09
2023-03-23T17:59:01.915Z,99372.34
2023-03-23T18:00:34.160Z,99374.53
2023-03-23T18:02:07.120Z,99384.84
2023-03-23T18:03:39.136Z,99380.75
2023-03-23T18:05:12.026Z,99382.09
2023-03-23T18:06:44.075Z,99390.38
2023-03-23T18:08:16.155Z,99397.81
2023-03-23T18:09:48.276Z,99396.13
2023-03-23T18:11:20.226Z,99389.16
2023-03-23T18:12:52.116Z,99398.31
2023-03-23T18:14:24.439Z,99401.16
2023-03-23T18:15:57.059Z,99406.75
2023-03-23T18:17:28.958Z,99399.63
2023-03-23T18:19:01.195Z,99409.59
2023-03-23T18:20:33.616Z,99397.41
2023-03-23T18:22:05.548Z,99396.72
2023-03-23T18:23:46.000Z,99396.91
2023-03-23T18:25:21.702Z,99399.22
2023-03-23T18:26:53.615Z,99398.66
2023-03-23T18:28:25.585Z,99402.72
2023-03-23T18:29:59.062Z,99399.63
2023-03-23T18:31:31.043Z,99397.41
2023-03-23T18:33:03.125Z,99395.34
2023-03-23T18:34:36.869Z,99398.56
2023-03-23T18:36:10.027Z,99387.50
2023-03-23T18:37:43.743Z,99384.44
2023-03-23T18:39:15.961Z,99378.84
2023-03-23T18:40:47.776Z,99391.28
2023-03-23T18:42:19.763Z,99394.44
2023-03-23T18:43:52.205Z,99395.06
2023-03-23T18:45:24.035Z,99393.00
2023-03-23T18:46:56.481Z,99397.22
2023-03-23T18:48:28.987Z,99403.22
2023-03-23T18:50:01.632Z,99403.00
2023-03-23T18:51:33.482Z,99398.22
2023-03-23T18:53:05.294Z,99394.28
2023-03-23T18:54:38.447Z,99402.13
2023-03-23T18:56:16.235Z,99404.59
2023-03-23T18:57:53.439Z,99405.06
2023-03-23T18:59:30.924Z,99403.66
2023-03-23T19:01:09.193Z,99397.88
2023-03-23T19:02:42.063Z,99398.50
2023-03-23T19:04:14.766Z,99399.66
2023-03-23T19:05:47.108Z,99402.81
2023-03-23T19:07:20.055Z,99401.44
2023-03-23T19:08:53.714Z,99397.31
2023-03-23T19:10:25.901Z,99400.31
2023-03-23T19:11:57.950Z,99394.53
2023-03-23T19:13:31.656Z,99396.69
2023-03-23T19:15:03.955Z,99396.16
2023-03-23T19:16:36.292Z,99396.47
2023-03-23T19:18:09.070Z,99403.00
2023-03-23T19:19:43.229Z,99405.81
2023-03-23T19:21:18.689Z,99406.84
2023-03-23T19:22:52.988Z,99403.28